Terminal Aerodrome Forecast
Issued by NWS

Home | Current Version | Previous Version | Text Only | Print | Product List | Glossary On
Versions: 1 2 3 4 5 6 7 8 9 10 11 12 13 14
840
FTUS44 KEPZ 220520
TAFLRU
TAF
KLRU 220520Z 2206/2306 VRB05KT P6SM FEW250
     FM221400 20005KT P6SM SCT060
     FM230100 10006KT P6SM SCT060 SCT250=

USA.gov is the U.S. government's official web portal to all federal, state and local government web resources and services.